UAL530 KORD-KLAX
Flight info
| Callsign | UAL530 |
|---|---|
| Flight time | 3h 57m |
| Altitude | 30000 |
| Route | PEKUE PIPPN ROTTN LEFAM Q90 SKWYR/N0458F320 Q90 DNERO ANJLL4 |
| Aircraft | A21N/M-SDE3FGHIRWY/LB1 |
Departure
| Time | 2026-04-24 01:57 |
|---|---|
| Airport | Chicago O'Hare International Airport (KORD) |
Arrival
| Time | 2026-04-24 05:54 |
|---|---|
| Airport | Los Angeles International Airport (KLAX) |
| Time | Latitude | Longitude | Altitude | Speed | Heading |
|---|---|---|---|---|---|
| 2026-04-24 01:32 | 41.97932 | -87.90736 | 665 ft | 0 kts | 99° |
| 2026-04-24 01:46 | 41.97934 | -87.90749 | 665 ft | 2 kts | 98° |
| 2026-04-24 01:46 | 41.97936 | -87.90769 | 665 ft | 2 kts | 98° |
| 2026-04-24 01:47 | 41.97939 | -87.90789 | 665 ft | 2 kts | 99° |
| 2026-04-24 01:47 | 41.97941 | -87.90809 | 665 ft | 2 kts | 98° |
| 2026-04-24 01:47 | 41.97943 | -87.90828 | 665 ft | 1 kts | 99° |
| 2026-04-24 01:47 | 41.97944 | -87.90838 | 665 ft | 1 kts | 75° |
| 2026-04-24 01:48 | 41.97939 | -87.90848 | 665 ft | 1 kts | 18° |
| 2026-04-24 01:48 | 41.97932 | -87.90848 | 665 ft | 1 kts | 5° |
| 2026-04-24 01:48 | 41.97929 | -87.90849 | 665 ft | 0 kts | 8° |
| 2026-04-24 01:51 | 41.97934 | -87.90848 | 665 ft | 2 kts | 9° |
| 2026-04-24 01:51 | 41.97974 | -87.90838 | 665 ft | 8 kts | 11° |
| 2026-04-24 01:52 | 41.98049 | -87.90820 | 665 ft | 13 kts | 8° |
| 2026-04-24 01:52 | 41.98160 | -87.90824 | 665 ft | 18 kts | 352° |
| 2026-04-24 01:52 | 41.98274 | -87.90774 | 662 ft | 19 kts | 54° |
| 2026-04-24 01:52 | 41.98289 | -87.90605 | 662 ft | 17 kts | 89° |
| 2026-04-24 01:53 | 41.98288 | -87.90443 | 661 ft | 17 kts | 91° |
| 2026-04-24 01:53 | 41.98288 | -87.90275 | 659 ft | 18 kts | 89° |
| 2026-04-24 01:53 | 41.98289 | -87.90108 | 658 ft | 17 kts | 90° |
| 2026-04-24 01:53 | 41.98288 | -87.89945 | 658 ft | 17 kts | 90° |
| 2026-04-24 01:54 | 41.98288 | -87.89786 | 658 ft | 17 kts | 89° |
| 2026-04-24 01:54 | 41.98281 | -87.89620 | 655 ft | 18 kts | 96° |
| 2026-04-24 01:54 | 41.98294 | -87.89526 | 655 ft | 0 kts | 56° |
| 2026-04-24 01:55 | 41.98301 | -87.89515 | 655 ft | 5 kts | 44° |
| 2026-04-24 01:55 | 41.98362 | -87.89517 | 655 ft | 13 kts | 324° |
| 2026-04-24 01:56 | 41.98387 | -87.89665 | 655 ft | 23 kts | 271° |
| 2026-04-24 01:56 | 41.98382 | -87.90192 | 659 ft | 91 kts | 269° |
| 2026-04-24 01:56 | 41.98382 | -87.91338 | 665 ft | 150 kts | 269° |
| 2026-04-24 01:56 | 41.98370 | -87.92929 | 786 ft | 184 kts | 267° |
| 2026-04-24 01:57 | 41.98400 | -87.94663 | 1311 ft | 187 kts | 265° |
| 2026-04-24 01:57 | 41.98448 | -87.96396 | 1976 ft | 188 kts | 264° |
| 2026-04-24 01:57 | 41.98515 | -87.98151 | 2684 ft | 187 kts | 265° |
| 2026-04-24 01:57 | 41.98602 | -87.99885 | 3398 ft | 184 kts | 263° |
| 2026-04-24 01:58 | 41.98450 | -88.01440 | 4072 ft | 161 kts | 245° |
| 2026-04-24 01:58 | 41.98060 | -88.02902 | 4376 ft | 167 kts | 242° |
| 2026-04-24 01:58 | 41.97635 | -88.04417 | 4617 ft | 179 kts | 244° |
| 2026-04-24 01:58 | 41.97187 | -88.06098 | 4867 ft | 192 kts | 245° |
| 2026-04-24 01:59 | 41.96738 | -88.07883 | 5099 ft | 207 kts | 247° |
| 2026-04-24 01:59 | 41.96255 | -88.09869 | 5325 ft | 224 kts | 248° |
| 2026-04-24 01:59 | 41.95754 | -88.11987 | 5611 ft | 240 kts | 248° |
| 2026-04-24 01:59 | 41.95231 | -88.14220 | 5953 ft | 253 kts | 249° |
| 2026-04-24 02:00 | 41.94705 | -88.16498 | 6526 ft | 256 kts | 249° |
| 2026-04-24 02:00 | 41.94162 | -88.18851 | 7128 ft | 258 kts | 250° |
| 2026-04-24 02:00 | 41.93611 | -88.21236 | 7664 ft | 262 kts | 250° |
| 2026-04-24 02:00 | 41.93057 | -88.23640 | 8204 ft | 265 kts | 250° |
| 2026-04-24 02:01 | 41.92499 | -88.26052 | 8751 ft | 268 kts | 251° |
| 2026-04-24 02:01 | 41.91941 | -88.28456 | 9253 ft | 271 kts | 251° |
| 2026-04-24 02:01 | 41.91371 | -88.30917 | 9757 ft | 274 kts | 251° |
| 2026-04-24 02:01 | 41.90802 | -88.33367 | 10267 ft | 277 kts | 251° |
| 2026-04-24 02:02 | 41.90228 | -88.35843 | 10777 ft | 278 kts | 252° |
| 2026-04-24 02:02 | 41.89647 | -88.38345 | 11292 ft | 280 kts | 252° |
| 2026-04-24 02:02 | 41.89064 | -88.40856 | 11805 ft | 281 kts | 252° |
| 2026-04-24 02:02 | 41.88473 | -88.43394 | 12302 ft | 283 kts | 252° |
| 2026-04-24 02:03 | 41.87288 | -88.48465 | 13262 ft | 286 kts | 252° |
| 2026-04-24 02:03 | 41.86683 | -88.51047 | 13700 ft | 289 kts | 252° |
| 2026-04-24 02:03 | 41.86079 | -88.53635 | 14136 ft | 291 kts | 252° |
| 2026-04-24 02:04 | 41.85457 | -88.56290 | 14599 ft | 292 kts | 252° |
| 2026-04-24 02:04 | 41.84837 | -88.58933 | 15034 ft | 294 kts | 252° |
| 2026-04-24 02:04 | 41.84217 | -88.61575 | 15469 ft | 296 kts | 251° |
| 2026-04-24 02:04 | 41.83586 | -88.64247 | 15886 ft | 298 kts | 252° |
| 2026-04-24 02:05 | 41.82946 | -88.66964 | 16272 ft | 301 kts | 251° |
| 2026-04-24 02:05 | 41.82368 | -88.69420 | 16675 ft | 302 kts | 251° |
| 2026-04-24 02:05 | 41.81701 | -88.72235 | 17101 ft | 304 kts | 251° |
| 2026-04-24 02:05 | 41.81057 | -88.74955 | 17465 ft | 306 kts | 251° |
| 2026-04-24 02:06 | 41.80409 | -88.77708 | 17824 ft | 309 kts | 250° |
| 2026-04-24 02:06 | 41.79803 | -88.80475 | 18184 ft | 311 kts | 254° |
| 2026-04-24 02:06 | 41.79334 | -88.83333 | 18518 ft | 315 kts | 258° |
| 2026-04-24 02:06 | 41.78945 | -88.86274 | 18875 ft | 317 kts | 258° |
| 2026-04-24 02:07 | 41.78562 | -88.89212 | 19240 ft | 319 kts | 258° |
| 2026-04-24 02:07 | 41.78171 | -88.92207 | 19584 ft | 321 kts | 258° |
| 2026-04-24 02:07 | 41.77782 | -88.95190 | 19909 ft | 323 kts | 258° |
| 2026-04-24 02:07 | 41.77387 | -88.98198 | 20240 ft | 325 kts | 258° |
| 2026-04-24 02:08 | 41.76985 | -89.01254 | 20543 ft | 328 kts | 258° |
| 2026-04-24 02:08 | 41.76583 | -89.04308 | 20881 ft | 330 kts | 258° |
| 2026-04-24 02:08 | 41.76180 | -89.07360 | 21167 ft | 332 kts | 258° |
| 2026-04-24 02:08 | 41.75768 | -89.10483 | 21467 ft | 335 kts | 258° |
| 2026-04-24 02:09 | 41.75351 | -89.13635 | 21774 ft | 337 kts | 258° |
| 2026-04-24 02:09 | 41.74936 | -89.16746 | 22076 ft | 338 kts | 259° |
| 2026-04-24 02:09 | 41.74513 | -89.19924 | 22389 ft | 340 kts | 259° |
| 2026-04-24 02:09 | 41.74092 | -89.23106 | 22668 ft | 342 kts | 258° |
| 2026-04-24 02:10 | 41.73665 | -89.26297 | 22943 ft | 344 kts | 258° |
| 2026-04-24 02:10 | 41.73237 | -89.29488 | 23231 ft | 346 kts | 258° |
| 2026-04-24 02:10 | 41.72805 | -89.32708 | 23520 ft | 347 kts | 258° |
| 2026-04-24 02:10 | 41.72370 | -89.35942 | 23811 ft | 349 kts | 258° |
| 2026-04-24 02:11 | 41.71926 | -89.39214 | 24064 ft | 351 kts | 259° |
| 2026-04-24 02:11 | 41.71486 | -89.42479 | 24350 ft | 352 kts | 258° |
| 2026-04-24 02:11 | 41.71040 | -89.45772 | 24638 ft | 353 kts | 259° |
| 2026-04-24 02:11 | 41.70590 | -89.49078 | 24877 ft | 355 kts | 259° |
| 2026-04-24 02:12 | 41.70143 | -89.52366 | 25110 ft | 358 kts | 259° |
| 2026-04-24 02:12 | 41.69688 | -89.55714 | 25355 ft | 359 kts | 258° |
| 2026-04-24 02:12 | 41.69226 | -89.59089 | 25600 ft | 361 kts | 258° |
| 2026-04-24 02:12 | 41.68770 | -89.62412 | 25840 ft | 362 kts | 259° |
| 2026-04-24 02:13 | 41.68305 | -89.65789 | 26069 ft | 364 kts | 258° |
| 2026-04-24 02:13 | 41.67843 | -89.69142 | 26283 ft | 366 kts | 258° |
| 2026-04-24 02:13 | 41.67381 | -89.72488 | 26486 ft | 368 kts | 258° |
| 2026-04-24 02:13 | 41.66871 | -89.75892 | 26735 ft | 369 kts | 256° |
| 2026-04-24 02:14 | 41.66326 | -89.79263 | 26961 ft | 370 kts | 256° |
| 2026-04-24 02:14 | 41.65771 | -89.82654 | 27163 ft | 372 kts | 256° |
| 2026-04-24 02:14 | 41.65213 | -89.86075 | 27380 ft | 373 kts | 257° |
| 2026-04-24 02:14 | 41.64661 | -89.89471 | 27599 ft | 374 kts | 257° |
| 2026-04-24 02:15 | 41.64097 | -89.92941 | 27823 ft | 376 kts | 257° |
| 2026-04-24 02:15 | 41.63538 | -89.96369 | 28013 ft | 377 kts | 257° |
| 2026-04-24 02:15 | 41.62963 | -89.99900 | 28227 ft | 379 kts | 257° |
| 2026-04-24 02:15 | 41.62392 | -90.03403 | 28417 ft | 381 kts | 257° |
| 2026-04-24 02:16 | 41.61811 | -90.06952 | 28631 ft | 382 kts | 257° |
| 2026-04-24 02:16 | 41.61249 | -90.10390 | 28847 ft | 382 kts | 257° |
| 2026-04-24 02:16 | 41.60677 | -90.13872 | 29042 ft | 383 kts | 257° |
| 2026-04-24 02:16 | 41.60097 | -90.17406 | 29261 ft | 384 kts | 257° |
| 2026-04-24 02:17 | 41.59526 | -90.20882 | 29442 ft | 385 kts | 257° |
| 2026-04-24 02:17 | 41.58940 | -90.24433 | 29635 ft | 386 kts | 257° |
| 2026-04-24 02:17 | 41.57770 | -90.31516 | 29687 ft | 396 kts | 257° |
| 2026-04-24 02:18 | 41.56533 | -90.38942 | 29699 ft | 408 kts | 257° |
| 2026-04-24 02:18 | 41.55276 | -90.46482 | 29699 ft | 418 kts | 257° |
| 2026-04-24 02:19 | 41.53979 | -90.54218 | 29682 ft | 426 kts | 257° |
| 2026-04-24 02:19 | 41.52664 | -90.62020 | 29700 ft | 428 kts | 257° |
| 2026-04-24 02:20 | 41.51345 | -90.69843 | 29700 ft | 427 kts | 256° |
| 2026-04-24 02:20 | 41.50020 | -90.77670 | 29693 ft | 428 kts | 256° |
| 2026-04-24 02:21 | 41.48672 | -90.85574 | 29703 ft | 427 kts | 256° |
| 2026-04-24 02:21 | 41.47333 | -90.93378 | 29685 ft | 428 kts | 256° |
| 2026-04-24 02:22 | 41.45986 | -91.01208 | 29704 ft | 428 kts | 256° |
| 2026-04-24 02:22 | 41.44645 | -91.08967 | 29682 ft | 427 kts | 256° |
| 2026-04-24 02:23 | 41.43286 | -91.16795 | 29680 ft | 426 kts | 256° |
| 2026-04-24 02:23 | 41.41938 | -91.24537 | 29693 ft | 426 kts | 256° |
| 2026-04-24 02:24 | 41.40555 | -91.32431 | 29689 ft | 424 kts | 256° |
| 2026-04-24 02:24 | 41.39181 | -91.40259 | 29690 ft | 425 kts | 256° |
| 2026-04-24 02:25 | 41.37804 | -91.48051 | 29677 ft | 426 kts | 256° |
| 2026-04-24 02:25 | 41.36433 | -91.55769 | 29656 ft | 424 kts | 256° |
| 2026-04-24 02:26 | 41.35075 | -91.63395 | 29685 ft | 422 kts | 256° |
| 2026-04-24 02:26 | 41.33708 | -91.71053 | 29672 ft | 423 kts | 255° |
| 2026-04-24 02:27 | 41.32324 | -91.78758 | 29668 ft | 422 kts | 255° |
| 2026-04-24 02:27 | 41.30943 | -91.86427 | 29667 ft | 423 kts | 255° |
| 2026-04-24 02:28 | 41.29553 | -91.94115 | 29665 ft | 423 kts | 255° |
| 2026-04-24 02:28 | 41.28156 | -92.01798 | 29657 ft | 424 kts | 255° |
| 2026-04-24 02:29 | 41.26728 | -92.09586 | 29671 ft | 420 kts | 255° |
| 2026-04-24 02:29 | 41.25322 | -92.17300 | 29671 ft | 419 kts | 255° |
| 2026-04-24 02:30 | 41.23881 | -92.25115 | 29665 ft | 417 kts | 255° |
| 2026-04-24 02:30 | 41.22461 | -92.32828 | 29670 ft | 419 kts | 254° |
| 2026-04-24 02:31 | 41.21030 | -92.40503 | 29686 ft | 420 kts | 254° |
| 2026-04-24 02:31 | 41.19603 | -92.48180 | 29683 ft | 417 kts | 254° |
| 2026-04-24 02:32 | 41.18182 | -92.55769 | 29690 ft | 416 kts | 254° |
| 2026-04-24 02:32 | 41.16779 | -92.63264 | 29680 ft | 416 kts | 253° |
| 2026-04-24 02:33 | 41.15331 | -92.70912 | 29711 ft | 418 kts | 253° |
| 2026-04-24 02:33 | 41.13885 | -92.78567 | 29658 ft | 419 kts | 253° |
| 2026-04-24 02:34 | 41.12446 | -92.86148 | 29629 ft | 414 kts | 252° |
| 2026-04-24 02:34 | 41.11017 | -92.93676 | 29631 ft | 416 kts | 252° |
| 2026-04-24 02:35 | 41.09547 | -93.01323 | 29617 ft | 415 kts | 252° |
| 2026-04-24 02:35 | 41.08100 | -93.08850 | 29647 ft | 416 kts | 251° |
| 2026-04-24 02:36 | 41.06634 | -93.16438 | 29636 ft | 418 kts | 252° |
| 2026-04-24 02:36 | 41.05164 | -93.24017 | 29659 ft | 417 kts | 252° |
| 2026-04-24 02:37 | 41.03697 | -93.31566 | 29663 ft | 416 kts | 252° |
| 2026-04-24 02:37 | 41.02235 | -93.39058 | 29670 ft | 415 kts | 252° |
| 2026-04-24 02:38 | 41.00746 | -93.46652 | 29670 ft | 420 kts | 251° |
| 2026-04-24 02:38 | 40.99092 | -93.54168 | 29667 ft | 419 kts | 248° |
| 2026-04-24 02:39 | 40.97015 | -93.61591 | 29658 ft | 418 kts | 246° |
| 2026-04-24 02:39 | 40.94893 | -93.69035 | 29663 ft | 419 kts | 246° |
| 2026-04-24 02:40 | 40.92757 | -93.76533 | 29669 ft | 421 kts | 246° |
| 2026-04-24 02:40 | 40.90598 | -93.84070 | 29674 ft | 421 kts | 246° |
| 2026-04-24 02:41 | 40.88469 | -93.91482 | 29677 ft | 421 kts | 246° |
| 2026-04-24 02:41 | 40.86318 | -93.98955 | 29687 ft | 421 kts | 246° |
| 2026-04-24 02:42 | 40.84171 | -94.06396 | 29676 ft | 421 kts | 246° |
| 2026-04-24 02:42 | 40.81987 | -94.13925 | 29687 ft | 422 kts | 245° |
| 2026-04-24 02:43 | 40.79822 | -94.21394 | 29686 ft | 419 kts | 245° |
| 2026-04-24 02:43 | 40.77638 | -94.28848 | 29695 ft | 419 kts | 246° |
| 2026-04-24 02:44 | 40.75469 | -94.36311 | 29695 ft | 417 kts | 245° |
| 2026-04-24 02:44 | 40.73308 | -94.43688 | 29681 ft | 415 kts | 243° |
| 2026-04-24 02:45 | 40.71157 | -94.51012 | 29675 ft | 413 kts | 245° |
| 2026-04-24 02:45 | 40.68995 | -94.58318 | 29677 ft | 413 kts | 245° |
| 2026-04-24 02:46 | 40.66890 | -94.65444 | 29680 ft | 413 kts | 244° |
| 2026-04-24 02:46 | 40.64726 | -94.72756 | 29677 ft | 411 kts | 244° |
| 2026-04-24 02:47 | 40.62624 | -94.79836 | 29675 ft | 408 kts | 244° |
| 2026-04-24 02:47 | 40.60558 | -94.86772 | 29676 ft | 409 kts | 243° |
| 2026-04-24 02:48 | 40.58488 | -94.93695 | 29693 ft | 407 kts | 243° |
| 2026-04-24 02:48 | 40.56368 | -95.00776 | 29702 ft | 404 kts | 243° |
| 2026-04-24 02:49 | 40.54219 | -95.07943 | 29700 ft | 404 kts | 243° |
| 2026-04-24 02:49 | 40.52084 | -95.15023 | 29670 ft | 403 kts | 243° |
| 2026-04-24 02:50 | 40.49966 | -95.22047 | 29666 ft | 401 kts | 243° |
| 2026-04-24 02:50 | 40.47845 | -95.29035 | 29678 ft | 403 kts | 243° |
| 2026-04-24 02:51 | 40.45718 | -95.36063 | 29680 ft | 404 kts | 243° |
| 2026-04-24 02:51 | 40.43602 | -95.43012 | 29700 ft | 401 kts | 242° |
| 2026-04-24 02:52 | 40.41493 | -95.49920 | 29678 ft | 401 kts | 242° |
| 2026-04-24 02:52 | 40.39372 | -95.56836 | 29674 ft | 400 kts | 243° |
| 2026-04-24 02:53 | 40.37254 | -95.63755 | 29678 ft | 400 kts | 242° |
| 2026-04-24 02:53 | 40.35148 | -95.70599 | 29694 ft | 397 kts | 242° |
| 2026-04-24 02:54 | 40.33038 | -95.77430 | 29682 ft | 396 kts | 242° |
| 2026-04-24 02:54 | 40.30930 | -95.84278 | 29679 ft | 395 kts | 242° |
| 2026-04-24 02:55 | 40.28815 | -95.91093 | 29694 ft | 393 kts | 242° |
| 2026-04-24 02:55 | 40.26699 | -95.97900 | 29679 ft | 392 kts | 242° |
| 2026-04-24 02:56 | 40.24589 | -96.04694 | 29703 ft | 392 kts | 241° |
| 2026-04-24 02:56 | 40.22476 | -96.11449 | 29666 ft | 391 kts | 242° |
| 2026-04-24 02:57 | 40.20353 | -96.18230 | 29718 ft | 391 kts | 242° |
| 2026-04-24 02:57 | 40.18248 | -96.24944 | 29730 ft | 392 kts | 242° |
| 2026-04-24 02:58 | 40.16332 | -96.31859 | 29700 ft | 396 kts | 246° |
| 2026-04-24 02:58 | 40.14800 | -96.38930 | 29704 ft | 394 kts | 248° |
| 2026-04-24 02:59 | 40.13399 | -96.45496 | 29694 ft | 397 kts | 249° |
| 2026-04-24 02:59 | 40.11940 | -96.52310 | 29720 ft | 397 kts | 249° |
| 2026-04-24 03:00 | 40.08929 | -96.66340 | 29696 ft | 400 kts | 248° |
| 2026-04-24 03:01 | 40.07383 | -96.73457 | 29758 ft | 401 kts | 249° |
| 2026-04-24 03:01 | 40.05834 | -96.80627 | 29692 ft | 403 kts | 248° |
| 2026-04-24 03:02 | 40.04277 | -96.87788 | 29677 ft | 402 kts | 248° |
| 2026-04-24 03:02 | 40.02740 | -96.94860 | 29729 ft | 399 kts | 249° |
| 2026-04-24 03:03 | 40.01191 | -97.01953 | 29691 ft | 401 kts | 248° |
| 2026-04-24 03:03 | 39.99647 | -97.08986 | 29771 ft | 401 kts | 249° |
| 2026-04-24 03:04 | 39.98107 | -97.15978 | 29686 ft | 397 kts | 249° |
| 2026-04-24 03:04 | 39.97340 | -97.19461 | 29790 ft | 396 kts | 250° |
| 2026-04-24 03:04 | 39.96570 | -97.22957 | 29652 ft | 399 kts | 249° |
| 2026-04-24 03:05 | 39.95787 | -97.26498 | 29755 ft | 399 kts | 249° |
| 2026-04-24 03:05 | 39.95008 | -97.29990 | 29764 ft | 398 kts | 250° |
| 2026-04-24 03:05 | 39.93473 | -97.36890 | 29770 ft | 395 kts | 250° |
| 2026-04-24 03:06 | 39.91926 | -97.43829 | 29691 ft | 390 kts | 251° |
| 2026-04-24 03:06 | 39.90414 | -97.50618 | 29702 ft | 388 kts | 250° |
| 2026-04-24 03:07 | 39.88878 | -97.57455 | 29767 ft | 389 kts | 251° |
| 2026-04-24 03:07 | 39.87341 | -97.64301 | 29674 ft | 389 kts | 251° |
| 2026-04-24 03:08 | 39.85022 | -97.74512 | 29805 ft | 387 kts | 251° |
| 2026-04-24 03:09 | 39.83470 | -97.81301 | 29824 ft | 386 kts | 252° |
| 2026-04-24 03:09 | 39.81925 | -97.88061 | 29750 ft | 384 kts | 252° |
| 2026-04-24 03:10 | 39.80401 | -97.94733 | 29754 ft | 385 kts | 252° |
| 2026-04-24 03:10 | 39.78852 | -98.01444 | 29766 ft | 385 kts | 252° |
| 2026-04-24 03:11 | 39.77313 | -98.08111 | 29763 ft | 386 kts | 252° |
| 2026-04-24 03:11 | 39.75756 | -98.14826 | 29755 ft | 385 kts | 252° |
| 2026-04-24 03:12 | 39.74200 | -98.21532 | 29777 ft | 385 kts | 252° |
| 2026-04-24 03:12 | 39.72637 | -98.28259 | 29744 ft | 386 kts | 252° |
| 2026-04-24 03:13 | 39.71072 | -98.34938 | 29728 ft | 387 kts | 252° |
| 2026-04-24 03:13 | 39.69503 | -98.41650 | 29790 ft | 387 kts | 252° |
| 2026-04-24 03:14 | 39.67922 | -98.48372 | 29736 ft | 385 kts | 251° |
| 2026-04-24 03:14 | 39.66331 | -98.55111 | 29772 ft | 385 kts | 252° |
| 2026-04-24 03:15 | 39.64757 | -98.61781 | 29772 ft | 385 kts | 252° |
| 2026-04-24 03:15 | 39.63157 | -98.68525 | 29841 ft | 387 kts | 252° |
| 2026-04-24 03:16 | 39.61551 | -98.75299 | 29825 ft | 388 kts | 252° |
| 2026-04-24 03:16 | 39.59944 | -98.82032 | 29775 ft | 390 kts | 252° |
| 2026-04-24 03:17 | 39.58320 | -98.88811 | 29784 ft | 387 kts | 251° |
| 2026-04-24 03:17 | 39.56714 | -98.95512 | 29794 ft | 388 kts | 251° |
| 2026-04-24 03:18 | 39.55093 | -99.02255 | 29798 ft | 392 kts | 251° |
| 2026-04-24 03:18 | 39.53418 | -99.09200 | 29807 ft | 389 kts | 252° |
| 2026-04-24 03:19 | 39.51751 | -99.16097 | 29799 ft | 389 kts | 251° |
| 2026-04-24 03:19 | 39.50099 | -99.22903 | 29774 ft | 389 kts | 252° |
| 2026-04-24 03:20 | 39.48472 | -99.29600 | 29804 ft | 390 kts | 252° |
| 2026-04-24 03:20 | 39.46833 | -99.36317 | 29768 ft | 389 kts | 252° |
| 2026-04-24 03:21 | 39.45199 | -99.42998 | 29848 ft | 390 kts | 251° |
| 2026-04-24 03:21 | 39.43523 | -99.49822 | 29843 ft | 391 kts | 252° |
| 2026-04-24 03:22 | 39.41861 | -99.56572 | 29754 ft | 393 kts | 252° |
| 2026-04-24 03:22 | 39.40185 | -99.63358 | 29825 ft | 392 kts | 252° |
| 2026-04-24 03:23 | 39.38506 | -99.70145 | 29800 ft | 388 kts | 251° |
| 2026-04-24 03:23 | 39.36825 | -99.76920 | 29846 ft | 391 kts | 251° |
| 2026-04-24 03:24 | 39.35157 | -99.83615 | 29824 ft | 391 kts | 252° |
| 2026-04-24 03:24 | 39.33484 | -99.90311 | 29821 ft | 389 kts | 252° |
| 2026-04-24 03:25 | 39.31809 | -99.97021 | 29813 ft | 390 kts | 251° |
| 2026-04-24 03:25 | 39.30129 | -100.03707 | 29759 ft | 391 kts | 251° |
| 2026-04-24 03:26 | 39.28438 | -100.10422 | 29842 ft | 390 kts | 252° |
| 2026-04-24 03:26 | 39.26739 | -100.17139 | 29804 ft | 388 kts | 252° |
| 2026-04-24 03:27 | 39.25053 | -100.23817 | 29814 ft | 388 kts | 252° |
| 2026-04-24 03:27 | 39.23516 | -100.30788 | 29819 ft | 389 kts | 256° |
| 2026-04-24 03:28 | 39.22124 | -100.37829 | 29827 ft | 391 kts | 256° |
| 2026-04-24 03:28 | 39.20723 | -100.44912 | 29821 ft | 390 kts | 256° |
| 2026-04-24 03:29 | 39.19338 | -100.51881 | 29847 ft | 391 kts | 256° |
| 2026-04-24 03:29 | 39.17911 | -100.59045 | 29851 ft | 392 kts | 256° |
| 2026-04-24 03:30 | 39.16502 | -100.66099 | 29843 ft | 393 kts | 256° |
| 2026-04-24 03:30 | 39.15115 | -100.73018 | 29846 ft | 392 kts | 256° |
| 2026-04-24 03:31 | 39.13680 | -100.80140 | 29822 ft | 392 kts | 256° |
| 2026-04-24 03:31 | 39.12232 | -100.87332 | 29844 ft | 391 kts | 256° |
| 2026-04-24 03:32 | 39.10757 | -100.94583 | 29874 ft | 395 kts | 257° |
| 2026-04-24 03:32 | 39.09272 | -101.01907 | 29850 ft | 392 kts | 257° |
| 2026-04-24 03:33 | 39.07797 | -101.09126 | 29878 ft | 395 kts | 257° |
| 2026-04-24 03:33 | 39.06309 | -101.16417 | 29848 ft | 394 kts | 257° |
| 2026-04-24 03:34 | 39.04839 | -101.23563 | 29862 ft | 396 kts | 257° |
| 2026-04-24 03:34 | 39.03351 | -101.30785 | 29850 ft | 396 kts | 257° |
| 2026-04-24 03:35 | 39.01891 | -101.37846 | 29841 ft | 396 kts | 257° |
| 2026-04-24 03:35 | 39.00390 | -101.45064 | 29788 ft | 395 kts | 257° |
| 2026-04-24 03:36 | 38.98939 | -101.52039 | 29877 ft | 393 kts | 257° |
| 2026-04-24 03:36 | 38.97436 | -101.59248 | 29878 ft | 394 kts | 257° |
| 2026-04-24 03:37 | 38.95921 | -101.66460 | 29882 ft | 398 kts | 257° |
| 2026-04-24 03:37 | 38.94354 | -101.73925 | 29888 ft | 397 kts | 257° |
| 2026-04-24 03:38 | 38.92815 | -101.81224 | 29794 ft | 395 kts | 257° |
| 2026-04-24 03:38 | 38.92059 | -101.84796 | 29898 ft | 395 kts | 257° |
| 2026-04-24 03:38 | 38.91294 | -101.88397 | 29804 ft | 396 kts | 257° |
| 2026-04-24 03:38 | 38.90528 | -101.92009 | 29957 ft | 396 kts | 257° |
| 2026-04-24 03:39 | 38.89760 | -101.95622 | 29932 ft | 398 kts | 257° |
| 2026-04-24 03:39 | 38.88211 | -102.02884 | 29876 ft | 399 kts | 257° |
| 2026-04-24 03:40 | 38.86695 | -102.09979 | 29880 ft | 396 kts | 257° |
| 2026-04-24 03:40 | 38.85161 | -102.17117 | 29909 ft | 395 kts | 258° |
| 2026-04-24 03:41 | 38.83649 | -102.24153 | 29937 ft | 395 kts | 258° |
| 2026-04-24 03:41 | 38.82130 | -102.31191 | 29958 ft | 395 kts | 258° |
| 2026-04-24 03:42 | 38.80616 | -102.38180 | 29871 ft | 396 kts | 258° |
| 2026-04-24 03:42 | 38.79091 | -102.45188 | 29980 ft | 396 kts | 258° |
| 2026-04-24 03:43 | 38.77568 | -102.52175 | 29884 ft | 395 kts | 258° |
| 2026-04-24 03:43 | 38.76038 | -102.59171 | 29872 ft | 394 kts | 258° |
| 2026-04-24 03:44 | 38.74519 | -102.66084 | 29881 ft | 391 kts | 257° |
| 2026-04-24 03:44 | 38.73021 | -102.72901 | 29893 ft | 389 kts | 258° |
| 2026-04-24 03:45 | 38.71499 | -102.79792 | 29925 ft | 390 kts | 257° |
| 2026-04-24 03:45 | 38.70002 | -102.86547 | 29955 ft | 394 kts | 258° |
| 2026-04-24 03:46 | 38.68446 | -102.93559 | 29977 ft | 392 kts | 258° |
| 2026-04-24 03:46 | 38.66902 | -103.00485 | 29918 ft | 393 kts | 257° |
| 2026-04-24 03:47 | 38.65360 | -103.07378 | 29891 ft | 394 kts | 257° |
| 2026-04-24 03:47 | 38.63799 | -103.14346 | 29933 ft | 394 kts | 257° |
| 2026-04-24 03:48 | 38.62207 | -103.21439 | 29951 ft | 394 kts | 258° |
| 2026-04-24 03:48 | 38.60604 | -103.28546 | 29924 ft | 390 kts | 257° |
| 2026-04-24 03:49 | 38.59006 | -103.35601 | 29920 ft | 392 kts | 257° |
| 2026-04-24 03:49 | 38.57401 | -103.42669 | 29981 ft | 389 kts | 257° |
| 2026-04-24 03:50 | 38.55830 | -103.49570 | 29929 ft | 387 kts | 257° |
| 2026-04-24 03:50 | 38.54260 | -103.56444 | 30000 ft | 386 kts | 257° |
| 2026-04-24 03:51 | 38.52704 | -103.63238 | 29915 ft | 388 kts | 258° |
| 2026-04-24 03:51 | 38.51143 | -103.70023 | 29920 ft | 386 kts | 257° |
| 2026-04-24 03:52 | 38.49612 | -103.76659 | 29922 ft | 387 kts | 257° |
| 2026-04-24 03:52 | 38.48061 | -103.83374 | 29927 ft | 385 kts | 257° |
| 2026-04-24 03:53 | 38.46520 | -103.90019 | 30010 ft | 385 kts | 257° |
| 2026-04-24 03:53 | 38.44960 | -103.96739 | 29946 ft | 385 kts | 257° |
| 2026-04-24 03:54 | 38.43415 | -104.03352 | 29971 ft | 386 kts | 257° |
| 2026-04-24 03:54 | 38.41867 | -104.09983 | 29998 ft | 387 kts | 257° |
| 2026-04-24 03:55 | 38.40316 | -104.16600 | 29931 ft | 384 kts | 257° |
| 2026-04-24 03:55 | 38.38775 | -104.23144 | 30032 ft | 382 kts | 257° |
| 2026-04-24 03:56 | 38.37230 | -104.29703 | 29982 ft | 386 kts | 257° |
| 2026-04-24 03:56 | 38.35689 | -104.36230 | 29931 ft | 382 kts | 256° |
| 2026-04-24 03:57 | 38.34137 | -104.42760 | 29875 ft | 384 kts | 256° |
| 2026-04-24 03:57 | 38.32581 | -104.49300 | 29878 ft | 385 kts | 257° |
| 2026-04-24 03:58 | 38.31027 | -104.55824 | 29972 ft | 383 kts | 256° |
| 2026-04-24 03:58 | 38.29462 | -104.62370 | 29837 ft | 384 kts | 256° |
| 2026-04-24 03:59 | 38.27907 | -104.68850 | 29947 ft | 382 kts | 256° |
| 2026-04-24 03:59 | 38.26334 | -104.75398 | 30002 ft | 383 kts | 256° |
| 2026-04-24 04:00 | 38.24765 | -104.81910 | 30106 ft | 385 kts | 256° |
| 2026-04-24 04:00 | 38.23194 | -104.88409 | 30065 ft | 383 kts | 256° |
| 2026-04-24 04:01 | 38.21617 | -104.94913 | 30053 ft | 382 kts | 256° |
| 2026-04-24 04:01 | 38.20048 | -105.01371 | 30085 ft | 382 kts | 255° |
| 2026-04-24 04:02 | 38.18471 | -105.07840 | 30130 ft | 383 kts | 255° |
| 2026-04-24 04:02 | 38.16887 | -105.14324 | 30111 ft | 383 kts | 256° |
| 2026-04-24 04:03 | 38.15286 | -105.20861 | 30132 ft | 385 kts | 256° |
| 2026-04-24 04:03 | 38.13691 | -105.27355 | 30050 ft | 384 kts | 256° |
| 2026-04-24 04:03 | 38.12893 | -105.30594 | 30152 ft | 382 kts | 256° |
| 2026-04-24 04:04 | 38.12088 | -105.33856 | 30092 ft | 384 kts | 256° |
| 2026-04-24 04:04 | 38.10495 | -105.40314 | 30075 ft | 385 kts | 255° |
| 2026-04-24 04:05 | 38.08886 | -105.46808 | 30093 ft | 384 kts | 255° |
| 2026-04-24 04:05 | 38.07267 | -105.53316 | 30080 ft | 386 kts | 256° |
| 2026-04-24 04:06 | 38.05658 | -105.59787 | 30143 ft | 385 kts | 256° |
| 2026-04-24 04:06 | 38.04021 | -105.66340 | 30100 ft | 387 kts | 255° |
| 2026-04-24 04:07 | 38.02398 | -105.72823 | 30076 ft | 385 kts | 255° |
| 2026-04-24 04:07 | 38.00715 | -105.79293 | 30070 ft | 386 kts | 252° |
| 2026-04-24 04:08 | 37.98868 | -105.85702 | 30085 ft | 384 kts | 252° |
| 2026-04-24 04:08 | 37.97025 | -105.92082 | 30169 ft | 386 kts | 253° |
| 2026-04-24 04:08 | 37.96091 | -105.95308 | 30026 ft | 387 kts | 253° |
| 2026-04-24 04:09 | 37.95163 | -105.98502 | 30134 ft | 386 kts | 253° |
| 2026-04-24 04:09 | 37.93294 | -106.04939 | 30120 ft | 388 kts | 253° |
| 2026-04-24 04:10 | 37.91404 | -106.11418 | 30098 ft | 390 kts | 253° |
| 2026-04-24 04:10 | 37.89513 | -106.17886 | 30103 ft | 387 kts | 253° |
| 2026-04-24 04:11 | 37.86690 | -106.27522 | 30004 ft | 387 kts | 253° |
| 2026-04-24 04:11 | 37.84813 | -106.33895 | 30067 ft | 385 kts | 253° |
| 2026-04-24 04:12 | 37.82928 | -106.40298 | 30034 ft | 387 kts | 253° |
| 2026-04-24 04:12 | 37.81049 | -106.46655 | 30076 ft | 386 kts | 253° |
| 2026-04-24 04:13 | 37.79149 | -106.53080 | 30143 ft | 388 kts | 252° |
| 2026-04-24 04:13 | 37.77246 | -106.59494 | 30139 ft | 388 kts | 252° |
| 2026-04-24 04:14 | 37.75342 | -106.65884 | 30137 ft | 389 kts | 252° |
| 2026-04-24 04:14 | 37.73425 | -106.72311 | 30149 ft | 386 kts | 252° |
| 2026-04-24 04:15 | 37.71527 | -106.78659 | 30128 ft | 384 kts | 252° |
| 2026-04-24 04:15 | 37.69616 | -106.85042 | 30151 ft | 384 kts | 252° |
| 2026-04-24 04:16 | 37.67731 | -106.91321 | 30168 ft | 384 kts | 252° |
| 2026-04-24 04:16 | 37.65834 | -106.97625 | 30200 ft | 385 kts | 252° |
| 2026-04-24 04:17 | 37.63913 | -107.03992 | 30092 ft | 386 kts | 252° |
| 2026-04-24 04:17 | 37.61995 | -107.10335 | 30137 ft | 384 kts | 252° |
| 2026-04-24 04:18 | 37.60091 | -107.16609 | 30134 ft | 383 kts | 252° |
| 2026-04-24 04:18 | 37.58180 | -107.22905 | 30193 ft | 383 kts | 252° |
| 2026-04-24 04:19 | 37.56273 | -107.29172 | 30114 ft | 381 kts | 252° |
| 2026-04-24 04:19 | 37.54381 | -107.35377 | 30165 ft | 378 kts | 252° |
| 2026-04-24 04:20 | 37.52469 | -107.41627 | 30162 ft | 381 kts | 252° |
| 2026-04-24 04:20 | 37.50557 | -107.47875 | 30167 ft | 384 kts | 252° |
| 2026-04-24 04:21 | 37.48616 | -107.54191 | 30111 ft | 383 kts | 252° |
| 2026-04-24 04:21 | 37.46693 | -107.60438 | 30135 ft | 383 kts | 252° |
| 2026-04-24 04:22 | 37.44759 | -107.66706 | 30135 ft | 382 kts | 252° |
| 2026-04-24 04:22 | 37.42824 | -107.72961 | 30132 ft | 380 kts | 252° |
| 2026-04-24 04:23 | 37.40902 | -107.79166 | 30141 ft | 380 kts | 252° |
| 2026-04-24 04:23 | 37.38969 | -107.85388 | 30125 ft | 380 kts | 252° |
| 2026-04-24 04:24 | 37.37032 | -107.91611 | 30154 ft | 379 kts | 252° |
| 2026-04-24 04:24 | 37.35090 | -107.97842 | 30152 ft | 381 kts | 252° |
| 2026-04-24 04:25 | 37.33133 | -108.04097 | 30111 ft | 381 kts | 252° |
| 2026-04-24 04:25 | 37.31184 | -108.10328 | 30149 ft | 382 kts | 252° |
| 2026-04-24 04:26 | 37.29237 | -108.16522 | 30098 ft | 380 kts | 252° |
| 2026-04-24 04:26 | 37.27276 | -108.22749 | 30151 ft | 380 kts | 252° |
| 2026-04-24 04:27 | 37.25322 | -108.28947 | 30101 ft | 379 kts | 252° |
| 2026-04-24 04:27 | 37.23354 | -108.35175 | 30131 ft | 381 kts | 252° |
| 2026-04-24 04:28 | 37.21371 | -108.41431 | 30124 ft | 381 kts | 252° |
| 2026-04-24 04:28 | 37.19398 | -108.47650 | 30121 ft | 381 kts | 252° |
| 2026-04-24 04:29 | 37.17412 | -108.53891 | 30074 ft | 380 kts | 252° |
| 2026-04-24 04:29 | 37.15404 | -108.60187 | 30072 ft | 380 kts | 252° |
| 2026-04-24 04:30 | 37.13397 | -108.66464 | 30102 ft | 381 kts | 252° |
| 2026-04-24 04:30 | 37.11394 | -108.72718 | 30072 ft | 381 kts | 251° |
| 2026-04-24 04:31 | 37.09376 | -108.78999 | 30051 ft | 380 kts | 252° |
| 2026-04-24 04:31 | 37.07384 | -108.85194 | 30071 ft | 379 kts | 252° |
| 2026-04-24 04:32 | 37.05395 | -108.91374 | 30038 ft | 380 kts | 252° |
| 2026-04-24 04:32 | 37.03404 | -108.97542 | 30040 ft | 380 kts | 252° |
| 2026-04-24 04:33 | 37.01382 | -109.03794 | 30038 ft | 379 kts | 252° |
| 2026-04-24 04:33 | 36.99369 | -109.09992 | 30047 ft | 380 kts | 252° |
| 2026-04-24 04:34 | 36.97350 | -109.16214 | 30063 ft | 380 kts | 252° |
| 2026-04-24 04:34 | 36.95328 | -109.22413 | 30035 ft | 380 kts | 252° |
| 2026-04-24 04:35 | 36.93310 | -109.28589 | 30040 ft | 380 kts | 252° |
| 2026-04-24 04:35 | 36.91294 | -109.34759 | 30052 ft | 380 kts | 252° |
| 2026-04-24 04:36 | 36.89286 | -109.40878 | 30065 ft | 380 kts | 252° |
| 2026-04-24 04:36 | 36.87237 | -109.47112 | 30064 ft | 380 kts | 252° |
| 2026-04-24 04:37 | 36.85199 | -109.53304 | 30083 ft | 381 kts | 252° |
| 2026-04-24 04:37 | 36.83149 | -109.59517 | 30068 ft | 382 kts | 252° |
| 2026-04-24 04:38 | 36.81099 | -109.65717 | 30071 ft | 384 kts | 251° |
| 2026-04-24 04:38 | 36.79042 | -109.71926 | 30096 ft | 383 kts | 251° |
| 2026-04-24 04:39 | 36.76979 | -109.78132 | 30075 ft | 383 kts | 251° |
| 2026-04-24 04:39 | 36.74913 | -109.84344 | 30054 ft | 383 kts | 251° |
| 2026-04-24 04:40 | 36.72851 | -109.90529 | 30085 ft | 385 kts | 251° |
| 2026-04-24 04:40 | 36.70786 | -109.96703 | 30082 ft | 384 kts | 251° |
| 2026-04-24 04:41 | 36.68722 | -110.02875 | 30084 ft | 384 kts | 251° |
| 2026-04-24 04:41 | 36.66650 | -110.09050 | 30073 ft | 383 kts | 251° |
| 2026-04-24 04:42 | 36.64555 | -110.15277 | 30078 ft | 385 kts | 251° |
| 2026-04-24 04:42 | 36.62464 | -110.21475 | 30105 ft | 385 kts | 251° |
| 2026-04-24 04:43 | 36.60368 | -110.27682 | 30070 ft | 386 kts | 251° |
| 2026-04-24 04:43 | 36.58275 | -110.33862 | 30082 ft | 386 kts | 251° |
| 2026-04-24 04:44 | 36.56168 | -110.40076 | 30095 ft | 386 kts | 251° |
| 2026-04-24 04:44 | 36.54065 | -110.46276 | 30099 ft | 385 kts | 251° |
| 2026-04-24 04:45 | 36.51908 | -110.52617 | 30094 ft | 387 kts | 251° |
| 2026-04-24 04:45 | 36.49720 | -110.59024 | 30086 ft | 387 kts | 251° |
| 2026-04-24 04:46 | 36.47549 | -110.65379 | 30066 ft | 389 kts | 250° |
| 2026-04-24 04:46 | 36.45388 | -110.71687 | 30088 ft | 388 kts | 250° |
| 2026-04-24 04:47 | 36.43218 | -110.77999 | 30088 ft | 389 kts | 250° |
| 2026-04-24 04:47 | 36.40978 | -110.84509 | 30094 ft | 388 kts | 251° |
| 2026-04-24 04:48 | 36.38744 | -110.90985 | 30070 ft | 389 kts | 251° |
| 2026-04-24 04:48 | 36.36489 | -110.97517 | 30103 ft | 390 kts | 250° |
| 2026-04-24 04:49 | 36.34249 | -111.03980 | 30100 ft | 390 kts | 250° |
| 2026-04-24 04:49 | 36.32050 | -111.10312 | 30086 ft | 390 kts | 250° |
| 2026-04-24 04:50 | 36.29896 | -111.16510 | 30088 ft | 390 kts | 250° |
| 2026-04-24 04:50 | 36.27738 | -111.22696 | 30064 ft | 390 kts | 250° |
| 2026-04-24 04:51 | 36.25547 | -111.28970 | 30071 ft | 391 kts | 250° |
| 2026-04-24 04:51 | 36.23359 | -111.35225 | 30091 ft | 391 kts | 250° |
| 2026-04-24 04:52 | 36.21175 | -111.41450 | 30090 ft | 392 kts | 250° |
| 2026-04-24 04:52 | 36.18980 | -111.47699 | 30074 ft | 391 kts | 250° |
| 2026-04-24 04:53 | 36.16762 | -111.53992 | 30098 ft | 392 kts | 250° |
| 2026-04-24 04:53 | 36.14550 | -111.60262 | 30077 ft | 392 kts | 250° |
| 2026-04-24 04:54 | 36.12330 | -111.66538 | 30093 ft | 393 kts | 250° |
| 2026-04-24 04:54 | 36.10114 | -111.72790 | 30084 ft | 393 kts | 250° |
| 2026-04-24 04:55 | 36.07871 | -111.79102 | 30096 ft | 393 kts | 250° |
| 2026-04-24 04:55 | 36.05774 | -111.85470 | 30092 ft | 392 kts | 252° |
| 2026-04-24 04:56 | 36.03743 | -111.91831 | 30104 ft | 393 kts | 252° |
| 2026-04-24 04:56 | 36.01705 | -111.98210 | 30120 ft | 393 kts | 252° |
| 2026-04-24 04:57 | 35.99656 | -112.04600 | 30105 ft | 391 kts | 252° |
| 2026-04-24 04:57 | 35.97611 | -112.10967 | 30123 ft | 392 kts | 252° |
| 2026-04-24 04:58 | 35.95547 | -112.17385 | 30112 ft | 393 kts | 252° |
| 2026-04-24 04:58 | 35.93499 | -112.23737 | 30112 ft | 393 kts | 252° |
| 2026-04-24 04:59 | 35.91452 | -112.30070 | 30115 ft | 394 kts | 252° |
| 2026-04-24 04:59 | 35.89396 | -112.36417 | 30120 ft | 394 kts | 252° |
| 2026-04-24 05:00 | 35.87339 | -112.42757 | 30117 ft | 394 kts | 251° |
| 2026-04-24 05:00 | 35.85255 | -112.49165 | 30106 ft | 394 kts | 251° |
| 2026-04-24 05:01 | 35.83188 | -112.55505 | 30121 ft | 394 kts | 251° |
| 2026-04-24 05:01 | 35.81105 | -112.61884 | 30115 ft | 394 kts | 251° |
| 2026-04-24 05:02 | 35.79040 | -112.68187 | 30119 ft | 394 kts | 251° |
| 2026-04-24 05:02 | 35.76974 | -112.74490 | 30118 ft | 395 kts | 251° |
| 2026-04-24 05:03 | 35.74892 | -112.80816 | 30117 ft | 394 kts | 251° |
| 2026-04-24 05:03 | 35.72809 | -112.87144 | 30113 ft | 395 kts | 251° |
| 2026-04-24 05:04 | 35.70714 | -112.93484 | 30121 ft | 394 kts | 251° |
| 2026-04-24 05:04 | 35.68627 | -112.99795 | 30115 ft | 396 kts | 251° |
| 2026-04-24 05:05 | 35.66509 | -113.06187 | 30115 ft | 396 kts | 251° |
| 2026-04-24 05:05 | 35.64415 | -113.12481 | 30106 ft | 396 kts | 251° |
| 2026-04-24 05:06 | 35.62291 | -113.18855 | 30116 ft | 397 kts | 251° |
| 2026-04-24 05:06 | 35.60177 | -113.25195 | 30093 ft | 396 kts | 251° |
| 2026-04-24 05:07 | 35.58060 | -113.31537 | 30104 ft | 397 kts | 251° |
| 2026-04-24 05:07 | 35.55925 | -113.37912 | 30085 ft | 397 kts | 251° |
| 2026-04-24 05:08 | 35.53771 | -113.44334 | 30076 ft | 397 kts | 251° |
| 2026-04-24 05:08 | 35.51627 | -113.50706 | 30067 ft | 397 kts | 251° |
| 2026-04-24 05:09 | 35.49489 | -113.57045 | 30078 ft | 398 kts | 251° |
| 2026-04-24 05:09 | 35.47344 | -113.63390 | 30055 ft | 397 kts | 251° |
| 2026-04-24 05:10 | 35.45197 | -113.69733 | 30073 ft | 398 kts | 251° |
| 2026-04-24 05:10 | 35.43040 | -113.76093 | 30054 ft | 399 kts | 250° |
| 2026-04-24 05:11 | 35.40875 | -113.82465 | 30050 ft | 399 kts | 250° |
| 2026-04-24 05:11 | 35.38691 | -113.88871 | 30025 ft | 398 kts | 250° |
| 2026-04-24 05:12 | 35.36528 | -113.95208 | 30023 ft | 399 kts | 250° |
| 2026-04-24 05:12 | 35.34316 | -114.01670 | 30024 ft | 398 kts | 250° |
| 2026-04-24 05:13 | 35.30953 | -114.11475 | 30031 ft | 400 kts | 250° |
| 2026-04-24 05:14 | 35.28743 | -114.17895 | 30032 ft | 400 kts | 250° |
| 2026-04-24 05:14 | 35.26516 | -114.24358 | 30021 ft | 400 kts | 250° |
| 2026-04-24 05:15 | 35.24311 | -114.30742 | 30006 ft | 400 kts | 250° |
| 2026-04-24 05:15 | 35.22079 | -114.37194 | 29975 ft | 400 kts | 250° |
| 2026-04-24 05:16 | 35.19873 | -114.43548 | 29927 ft | 400 kts | 250° |
| 2026-04-24 05:16 | 35.17635 | -114.49989 | 29909 ft | 401 kts | 250° |
| 2026-04-24 05:17 | 35.15402 | -114.56392 | 29913 ft | 401 kts | 250° |
| 2026-04-24 05:17 | 35.13140 | -114.62871 | 29907 ft | 401 kts | 250° |
| 2026-04-24 05:18 | 35.10909 | -114.69306 | 29907 ft | 401 kts | 250° |
| 2026-04-24 05:18 | 35.08672 | -114.75738 | 29936 ft | 401 kts | 250° |
| 2026-04-24 05:19 | 35.06427 | -114.82176 | 29988 ft | 401 kts | 250° |
| 2026-04-24 05:19 | 35.04181 | -114.88593 | 30011 ft | 402 kts | 249° |
| 2026-04-24 05:20 | 35.01630 | -114.94849 | 30009 ft | 403 kts | 245° |
| 2026-04-24 05:20 | 34.98955 | -115.01045 | 30002 ft | 403 kts | 245° |
| 2026-04-24 05:21 | 34.96275 | -115.07231 | 30009 ft | 403 kts | 245° |
| 2026-04-24 05:21 | 34.93595 | -115.13403 | 29998 ft | 403 kts | 245° |
| 2026-04-24 05:22 | 34.90895 | -115.19601 | 29998 ft | 403 kts | 245° |
| 2026-04-24 05:22 | 34.88206 | -115.25772 | 29988 ft | 403 kts | 245° |
| 2026-04-24 05:23 | 34.85524 | -115.31911 | 29986 ft | 404 kts | 245° |
| 2026-04-24 05:23 | 34.82838 | -115.38049 | 29984 ft | 403 kts | 245° |
| 2026-04-24 05:24 | 34.80152 | -115.44177 | 29987 ft | 403 kts | 245° |
| 2026-04-24 05:24 | 34.77728 | -115.50440 | 29979 ft | 402 kts | 249° |
| 2026-04-24 05:25 | 34.75428 | -115.56685 | 29986 ft | 402 kts | 249° |
| 2026-04-24 05:25 | 34.73125 | -115.62937 | 30008 ft | 403 kts | 249° |
| 2026-04-24 05:26 | 34.70817 | -115.69191 | 30002 ft | 403 kts | 248° |
| 2026-04-24 05:26 | 34.68517 | -115.75407 | 30010 ft | 404 kts | 248° |
| 2026-04-24 05:27 | 34.66195 | -115.81672 | 30002 ft | 403 kts | 248° |
| 2026-04-24 05:27 | 34.63884 | -115.87894 | 29990 ft | 403 kts | 248° |
| 2026-04-24 05:28 | 34.61578 | -115.94141 | 29983 ft | 403 kts | 249° |
| 2026-04-24 05:28 | 34.59282 | -116.00382 | 29989 ft | 404 kts | 249° |
| 2026-04-24 05:29 | 34.56970 | -116.06644 | 29993 ft | 404 kts | 249° |
| 2026-04-24 05:29 | 34.54667 | -116.12874 | 29993 ft | 403 kts | 249° |
| 2026-04-24 05:30 | 34.52361 | -116.19090 | 30007 ft | 403 kts | 249° |
| 2026-04-24 05:30 | 34.50047 | -116.25317 | 30025 ft | 403 kts | 249° |
| 2026-04-24 05:31 | 34.47736 | -116.31526 | 30031 ft | 402 kts | 248° |
| 2026-04-24 05:31 | 34.45416 | -116.37740 | 30030 ft | 401 kts | 248° |
| 2026-04-24 05:32 | 34.43108 | -116.43916 | 30026 ft | 402 kts | 248° |
| 2026-04-24 05:32 | 34.40715 | -116.50066 | 30021 ft | 401 kts | 246° |
| 2026-04-24 05:32 | 34.39463 | -116.53117 | 29410 ft | 397 kts | 246° |
| 2026-04-24 05:33 | 34.38228 | -116.56119 | 28069 ft | 400 kts | 246° |
| 2026-04-24 05:33 | 34.36988 | -116.59132 | 26589 ft | 403 kts | 246° |
| 2026-04-24 05:33 | 34.35737 | -116.62166 | 25126 ft | 405 kts | 246° |
| 2026-04-24 05:34 | 34.33232 | -116.68233 | 22559 ft | 397 kts | 246° |
| 2026-04-24 05:34 | 34.32036 | -116.71193 | 22175 ft | 373 kts | 246° |
| 2026-04-24 05:34 | 34.30916 | -116.73985 | 21934 ft | 367 kts | 247° |
| 2026-04-24 05:34 | 34.29794 | -116.76788 | 21756 ft | 366 kts | 246° |
| 2026-04-24 05:35 | 34.28675 | -116.79575 | 21593 ft | 364 kts | 246° |
| 2026-04-24 05:35 | 34.27564 | -116.82337 | 21429 ft | 363 kts | 246° |
| 2026-04-24 05:35 | 34.26465 | -116.85065 | 21269 ft | 361 kts | 246° |
| 2026-04-24 05:35 | 34.25363 | -116.87792 | 21111 ft | 359 kts | 246° |
| 2026-04-24 05:36 | 34.24241 | -116.90568 | 20949 ft | 358 kts | 246° |
| 2026-04-24 05:36 | 34.23148 | -116.93270 | 20792 ft | 357 kts | 246° |
| 2026-04-24 05:36 | 34.22073 | -116.95948 | 20590 ft | 356 kts | 248° |
| 2026-04-24 05:36 | 34.21096 | -116.98693 | 20353 ft | 354 kts | 251° |
| 2026-04-24 05:37 | 34.20260 | -117.01509 | 20067 ft | 351 kts | 254° |
| 2026-04-24 05:37 | 34.19490 | -117.04340 | 19653 ft | 349 kts | 254° |
| 2026-04-24 05:37 | 34.18744 | -117.07091 | 19276 ft | 347 kts | 254° |
| 2026-04-24 05:37 | 34.17984 | -117.09895 | 18824 ft | 345 kts | 254° |
| 2026-04-24 05:38 | 34.17239 | -117.12640 | 18409 ft | 342 kts | 254° |
| 2026-04-24 05:38 | 34.16507 | -117.15345 | 17980 ft | 340 kts | 254° |
| 2026-04-24 05:38 | 34.15760 | -117.18079 | 17560 ft | 337 kts | 253° |
| 2026-04-24 05:38 | 34.15032 | -117.20726 | 17133 ft | 335 kts | 253° |
| 2026-04-24 05:39 | 34.14297 | -117.23391 | 16721 ft | 332 kts | 253° |
| 2026-04-24 05:39 | 34.13575 | -117.26015 | 16313 ft | 329 kts | 253° |
| 2026-04-24 05:39 | 34.12849 | -117.28642 | 15890 ft | 327 kts | 253° |
| 2026-04-24 05:39 | 34.12132 | -117.31239 | 15477 ft | 324 kts | 253° |
| 2026-04-24 05:40 | 34.11417 | -117.33828 | 15050 ft | 322 kts | 253° |
| 2026-04-24 05:40 | 34.10708 | -117.36393 | 14633 ft | 320 kts | 253° |
| 2026-04-24 05:40 | 34.10033 | -117.38943 | 14266 ft | 316 kts | 255° |
| 2026-04-24 05:40 | 34.09407 | -117.41464 | 13893 ft | 313 kts | 256° |
| 2026-04-24 05:41 | 34.08785 | -117.43984 | 13509 ft | 310 kts | 255° |
| 2026-04-24 05:41 | 34.08170 | -117.46458 | 13125 ft | 308 kts | 255° |
| 2026-04-24 05:41 | 34.07551 | -117.48940 | 12825 ft | 302 kts | 255° |
| 2026-04-24 05:41 | 34.06953 | -117.51311 | 12592 ft | 296 kts | 255° |
| 2026-04-24 05:42 | 34.06347 | -117.53688 | 12208 ft | 294 kts | 255° |
| 2026-04-24 05:42 | 34.05750 | -117.56023 | 11833 ft | 293 kts | 255° |
| 2026-04-24 05:42 | 34.05154 | -117.58353 | 11458 ft | 292 kts | 255° |
| 2026-04-24 05:42 | 34.04553 | -117.60699 | 11079 ft | 291 kts | 255° |
| 2026-04-24 05:43 | 34.03958 | -117.63020 | 10699 ft | 290 kts | 255° |
| 2026-04-24 05:43 | 34.03362 | -117.65346 | 10325 ft | 289 kts | 254° |
| 2026-04-24 05:43 | 34.02778 | -117.67623 | 10156 ft | 279 kts | 255° |
| 2026-04-24 05:43 | 34.02303 | -117.69844 | 10044 ft | 267 kts | 259° |
| 2026-04-24 05:44 | 34.01997 | -117.72009 | 9779 ft | 264 kts | 264° |
| 2026-04-24 05:44 | 34.01781 | -117.74211 | 9445 ft | 263 kts | 264° |
| 2026-04-24 05:44 | 34.01573 | -117.76390 | 9118 ft | 262 kts | 264° |
| 2026-04-24 05:44 | 34.01362 | -117.78583 | 8787 ft | 261 kts | 264° |
| 2026-04-24 05:45 | 34.01151 | -117.80750 | 8464 ft | 261 kts | 264° |
| 2026-04-24 05:45 | 34.00938 | -117.82935 | 8142 ft | 260 kts | 264° |
| 2026-04-24 05:45 | 34.00727 | -117.85094 | 7837 ft | 258 kts | 264° |
| 2026-04-24 05:45 | 34.00519 | -117.87228 | 7516 ft | 258 kts | 264° |
| 2026-04-24 05:46 | 34.00307 | -117.89392 | 7180 ft | 259 kts | 263° |
| 2026-04-24 05:46 | 34.00098 | -117.91518 | 6992 ft | 256 kts | 264° |
| 2026-04-24 05:46 | 33.99888 | -117.93652 | 6677 ft | 257 kts | 264° |
| 2026-04-24 05:46 | 33.99681 | -117.95783 | 6362 ft | 256 kts | 263° |
| 2026-04-24 05:47 | 33.99469 | -117.97929 | 6066 ft | 256 kts | 263° |
| 2026-04-24 05:47 | 33.99262 | -118.00035 | 5768 ft | 255 kts | 263° |
| 2026-04-24 05:47 | 33.99051 | -118.02151 | 5445 ft | 254 kts | 263° |
| 2026-04-24 05:47 | 33.98838 | -118.04272 | 5116 ft | 253 kts | 263° |
| 2026-04-24 05:48 | 33.98649 | -118.06361 | 4792 ft | 251 kts | 265° |
| 2026-04-24 05:48 | 33.98488 | -118.08445 | 4498 ft | 249 kts | 264° |
| 2026-04-24 05:48 | 33.98311 | -118.10504 | 4204 ft | 245 kts | 264° |
| 2026-04-24 05:48 | 33.98118 | -118.12489 | 3952 ft | 233 kts | 263° |
| 2026-04-24 05:49 | 33.97920 | -118.14395 | 3863 ft | 228 kts | 263° |
| 2026-04-24 05:49 | 33.97720 | -118.16260 | 3852 ft | 216 kts | 263° |
| 2026-04-24 05:49 | 33.97536 | -118.17963 | 3673 ft | 201 kts | 264° |
| 2026-04-24 05:49 | 33.97360 | -118.19596 | 3400 ft | 191 kts | 264° |
| 2026-04-24 05:50 | 33.97192 | -118.21169 | 3159 ft | 190 kts | 264° |
| 2026-04-24 05:50 | 33.97028 | -118.22720 | 2975 ft | 184 kts | 264° |
| 2026-04-24 05:50 | 33.96874 | -118.24177 | 2709 ft | 167 kts | 264° |
| 2026-04-24 05:50 | 33.96737 | -118.25481 | 2458 ft | 153 kts | 263° |
| 2026-04-24 05:51 | 33.96604 | -118.26754 | 2257 ft | 152 kts | 263° |
| 2026-04-24 05:51 | 33.96472 | -118.28019 | 2071 ft | 152 kts | 263° |
| 2026-04-24 05:51 | 33.96342 | -118.29272 | 1883 ft | 152 kts | 262° |
| 2026-04-24 05:51 | 33.96211 | -118.30534 | 1693 ft | 152 kts | 263° |
| 2026-04-24 05:52 | 33.96085 | -118.31741 | 1504 ft | 151 kts | 263° |
| 2026-04-24 05:52 | 33.95955 | -118.32990 | 1300 ft | 150 kts | 263° |
| 2026-04-24 05:52 | 33.95827 | -118.34232 | 1102 ft | 149 kts | 263° |
| 2026-04-24 05:52 | 33.95701 | -118.35450 | 906 ft | 147 kts | 263° |
| 2026-04-24 05:53 | 33.95575 | -118.36678 | 709 ft | 146 kts | 262° |
| 2026-04-24 05:53 | 33.95450 | -118.37884 | 519 ft | 145 kts | 262° |
| 2026-04-24 05:53 | 33.95327 | -118.39085 | 331 ft | 144 kts | 262° |
| 2026-04-24 05:53 | 33.95206 | -118.40260 | 146 ft | 142 kts | 262° |
| 2026-04-24 05:54 | 33.95100 | -118.41293 | 125 ft | 87 kts | 265° |
| 2026-04-24 05:54 | 33.95055 | -118.41659 | 124 ft | 9 kts | 260° |
| 2026-04-24 05:54 | 33.95038 | -118.41734 | 124 ft | 9 kts | 247° |
| 2026-04-24 05:54 | 33.95006 | -118.41809 | 124 ft | 10 kts | 242° |
| 2026-04-24 05:55 | 33.94984 | -118.41857 | 124 ft | 0 kts | 242° |
| 2026-04-24 05:56 | 33.94966 | -118.41886 | 123 ft | 9 kts | 231° |
| 2026-04-24 05:56 | 33.94910 | -118.41974 | 121 ft | 16 kts | 233° |
| 2026-04-24 05:56 | 33.94831 | -118.42097 | 121 ft | 20 kts | 232° |
| 2026-04-24 05:56 | 33.94738 | -118.42236 | 118 ft | 4 kts | 230° |
| 2026-04-24 05:57 | 33.94738 | -118.42237 | 118 ft | 0 kts | 230° |
| 2026-04-24 05:57 | 33.94733 | -118.42241 | 118 ft | 4 kts | 206° |
| 2026-04-24 05:57 | 33.94690 | -118.42177 | 118 ft | 13 kts | 82° |
| 2026-04-24 05:57 | 33.94691 | -118.42171 | 118 ft | 0 kts | 75° |
| 2026-04-24 05:59 | 33.94693 | -118.42158 | 119 ft | 4 kts | 81° |
| 2026-04-24 05:59 | 33.94698 | -118.42099 | 120 ft | 9 kts | 84° |
| 2026-04-24 05:59 | 33.94709 | -118.41997 | 121 ft | 15 kts | 83° |
| 2026-04-24 05:59 | 33.94724 | -118.41843 | 121 ft | 21 kts | 83° |
| 2026-04-24 06:00 | 33.94745 | -118.41647 | 121 ft | 26 kts | 82° |
| 2026-04-24 06:00 | 33.94762 | -118.41485 | 123 ft | 4 kts | 83° |
| 2026-04-24 06:00 | 33.94762 | -118.41479 | 123 ft | 0 kts | 83° |
| 2026-04-24 06:00 | 33.94763 | -118.41478 | 123 ft | 1 kts | 83° |
| 2026-04-24 06:01 | 33.94769 | -118.41429 | 123 ft | 10 kts | 77° |
| 2026-04-24 06:01 | 33.94779 | -118.41333 | 124 ft | 11 kts | 113° |
| 2026-04-24 06:01 | 33.94708 | -118.41288 | 123 ft | 13 kts | 170° |
| 2026-04-24 06:01 | 33.94604 | -118.41273 | 121 ft | 16 kts | 173° |
| 2026-04-24 06:02 | 33.94491 | -118.41256 | 121 ft | 16 kts | 173° |
| 2026-04-24 06:02 | 33.94375 | -118.41240 | 121 ft | 17 kts | 174° |
| 2026-04-24 06:02 | 33.94258 | -118.41222 | 123 ft | 16 kts | 172° |
| 2026-04-24 06:02 | 33.94147 | -118.41205 | 124 ft | 16 kts | 174° |
| 2026-04-24 06:03 | 33.94032 | -118.41189 | 124 ft | 16 kts | 173° |
| 2026-04-24 06:03 | 33.93921 | -118.41174 | 126 ft | 15 kts | 174° |
| 2026-04-24 06:03 | 33.93851 | -118.41102 | 127 ft | 14 kts | 91° |
| 2026-04-24 06:03 | 33.93861 | -118.40979 | 128 ft | 14 kts | 83° |
| 2026-04-24 06:04 | 33.93874 | -118.40852 | 128 ft | 15 kts | 83° |
| 2026-04-24 06:04 | 33.93888 | -118.40720 | 127 ft | 16 kts | 83° |
| 2026-04-24 06:04 | 33.93903 | -118.40577 | 124 ft | 18 kts | 83° |
| 2026-04-24 06:04 | 33.93919 | -118.40420 | 123 ft | 19 kts | 83° |
| 2026-04-24 06:05 | 33.93936 | -118.40252 | 121 ft | 20 kts | 83° |
| 2026-04-24 06:05 | 33.93969 | -118.40087 | 119 ft | 19 kts | 30° |
| 2026-04-24 06:05 | 33.94103 | -118.40083 | 118 ft | 20 kts | 352° |
| 2026-04-24 06:05 | 33.94175 | -118.40093 | 118 ft | 0 kts | 6° |
| 2026-04-24 06:06 | 33.94187 | -118.40078 | 118 ft | 5 kts | 58° |
| 2026-04-24 06:06 | 33.94204 | -118.40035 | 118 ft | 0 kts | 71° |